Flight Track Log - Related Links

Times and Time Zones

All times are in EDT time to prevent confusion due to time zone crossing. See the GJS3710 flight status page for this flight to view local times or setup timezone preferences in your user account.

Time Position Orientation Groundspeed Altitude Reporting Facility
EDT Latitude Longitude Course Direction KTS MPH feet Rate Location/Type
Sat 07:55:09 PM 41.9333 -87.8667 83° East 191 220 2,500  Level Chicago TRACON
Sat 07:56:07 PM 41.9481 -87.8072 72° East 223 257 4,100 1,311 Climbing Chicago Center
Sat 07:57:08 PM 41.9653 -87.7119 76° East 251 289 5,100 1,756 Climbing Chicago Center
Sat 07:58:00 PM 42.2033 -87.2401 66° East  Level FlightAware Approximate
Sat 07:58:10 PM 41.9844 -87.6061 76° East 285 328 7,700  Level Chicago Center
Sat 07:59:00 PM 42.2487 -87.1038 66° East  Level FlightAware Approximate
Sat 07:59:11 PM 42.0067 -87.4764 77° East 298 343 10,400  Level Chicago Center
Sat 08:00:00 PM 42.2633 -86.9517 83° East  Level Estimated
Sat 08:00:13 PM 42.0197 -87.3558 82° East 322 371 12,900  Level Chicago Center
Sat 08:01:15 PM 42.0397 -87.2317 78° East 339 390 14,200 1,366 Climbing Chicago Center
Sat 08:02:16 PM 42.0536 -87.0861 83° East 389 448 15,700 1,610 Climbing Chicago Center
Sat 08:03:18 PM 42.0683 -86.9369 82° East 402 463 17,500 1,756 Climbing Chicago Center
Sat 08:04:19 PM 42.0842 -86.7833 82° East 413 475 19,300 1,805 Climbing Chicago Center
Sat 08:05:21 PM 42.0992 -86.6172 83° East 420 483 21,200 1,561 Climbing Chicago Center
Sat 08:06:22 PM 42.1144 -86.4572 83° East 429 494 22,500 1,220 Climbing Chicago Center
Sat 08:07:24 PM 42.1292 -86.2911 83° East 443 510 23,700 1,073 Climbing Chicago Center
Sat 08:08:25 PM 42.1469 -86.1186 82° East 460 529 24,700 1,073 Climbing Chicago Center
Sat 08:09:27 PM 42.1644 -85.9208 83° East 474 545 25,900 1,122 Climbing Chicago Center
Sat 08:10:28 PM 42.1808 -85.7422 83° East 483 556 27,000 1,073 Climbing Chicago Center
Sat 08:11:30 PM 42.1967 -85.5617 83° East 488 562 28,100 1,065 Climbing Chicago Center
Sat 08:12:32 PM 42.2117 -85.3778 84° East 495 570 29,200 1,171 Climbing Chicago Center
Sat 08:13:33 PM 42.2322 -85.1553 83° East 504 580 30,500 1,122 Climbing Chicago Center
Sat 08:14:35 PM 42.2469 -84.9706 84° East 501 577 31,500 976 Climbing Chicago Center
Sat 08:15:36 PM 42.2625 -84.7856 83° East 499 574 32,500 976 Climbing Chicago Center
Sat 08:16:38 PM 42.2769 -84.5989 84° East 502 578 33,500 976 Climbing Chicago Center
Sat 08:17:39 PM 42.2956 -84.4144 82° East 499 574 34,500 1,013 Climbing Chicago Center
Sat 08:17:55 PM 42.3000 -84.3678 83° East 496 571 34,800 1,026 Climbing Cleveland Center
Sat 08:18:55 PM 42.3264 -84.1894 79° East 491 565 35,800 1,000 Climbing Cleveland Center
Sat 08:19:55 PM 42.3508 -84.0083 80° East 486 559 36,800 800 Climbing Cleveland Center
Sat 08:20:55 PM 42.3767 -83.8325 79° East 486 559 37,400 550 Climbing Cleveland Center
Sat 08:21:55 PM 42.4050 -83.6372 79° East 481 554 37,900 500 Climbing Cleveland Center
Sat 08:22:55 PM 42.4094 -83.4686 88° East 481 554 38,400 500 Climbing Cleveland Center
Sat 08:23:55 PM 42.4181 -83.2889 86° East 482 555 38,900 300 Climbing Cleveland Center
Sat 08:24:55 PM 42.4267 -83.0811 87° East 487 560 39,000 50 Climbing Cleveland Center
Sat 08:25:55 PM 42.4306 -82.8956 88° East 487 560 39,000  Level Cleveland Center
Sat 08:26:55 PM 42.4364 -82.7044 88° East 493 567 39,000  Level Cleveland Center
Sat 08:27:55 PM 42.4419 -82.5133 88° East 493 567 39,000  Level Cleveland Center
Sat 08:28:55 PM 42.4492 -82.3222 87° East 498 573 39,000  Level Cleveland Center
Sat 08:29:55 PM 42.4539 -82.1281 88° East 498 573 39,000  Level Cleveland Center
Sat 08:30:55 PM 42.4586 -81.9339 88° East 498 573 39,000  Level Cleveland Center
Sat 08:31:55 PM 42.4628 -81.7456 88° East 506 582 39,000  Level Cleveland Center
Sat 08:32:55 PM 42.4686 -81.5683 87° East 513 590 39,000  Level Cleveland Center
Sat 08:33:55 PM 42.4700 -81.3797 89° East 508 585 39,000  Level Cleveland Center
Sat 08:34:55 PM 42.4753 -81.1939 88° East 498 573 39,000  Level Cleveland Center
Sat 08:35:55 PM 42.4781 -81.0083 89° East 488 562 39,000  Level Cleveland Center
Sat 08:36:55 PM 42.4808 -80.8225 89° East 488 562 39,000  Level Cleveland Center
Sat 08:37:55 PM 42.4831 -80.6422 89° East 488 562 39,000  Level Cleveland Center
Sat 08:38:55 PM 42.4872 -80.4425 88° East 483 556 39,000  Level Cleveland Center
Sat 08:39:55 PM 42.4889 -80.2594 89° East 478 550 39,000  Level Cleveland Center
Sat 08:40:55 PM 42.4883 -80.0764 90° East 478 550 39,000  Level Cleveland Center
Sat 08:41:55 PM 42.4917 -79.9158 88° East 478 550 39,000  Level Cleveland Center
Sat 08:42:55 PM 42.4906 -79.7328 90° East 478 550 39,000  Level Cleveland Center
Sat 08:43:55 PM 42.4911 -79.5556 90° East 478 550 39,000  Level Cleveland Center
Sat 08:44:55 PM 42.4936 -79.3753 89° East 478 550 39,000  Level Cleveland Center
Sat 08:45:55 PM 42.4978 -79.1978 88° East 478 550 39,000  Level Cleveland Center
Sat 08:46:55 PM 42.5100 -79.0172 85° East 478 550 39,000  Level Cleveland Center
Sat 08:47:55 PM 42.5219 -78.8367 85° East 478 550 39,000  Level Cleveland Center
Sat 08:48:55 PM 42.5339 -78.6586 85° East 478 550 39,000  Level Cleveland Center
Sat 08:49:55 PM 42.5453 -78.4808 85° East 478 550 39,000 -100 Level Cleveland Center
Sat 08:50:55 PM 42.5564 -78.3028 85° East 478 550 38,800 -600 Descending Cleveland Center
Sat 08:51:55 PM 42.5675 -78.1278 85° East 478 550 37,800 -1,000 Descending Cleveland Center
Sat 08:52:55 PM 42.5781 -77.9467 85° East 478 550 36,800 -1,050 Descending Cleveland Center
Sat 08:53:55 PM 42.5942 -77.7400 84° East 484 557 35,700 -988 Descending Cleveland Center
Sat 08:55:39 PM 42.6078 -77.4286 86° East 509 586 34,100 -951 Descending Boston Center
Sat 08:56:39 PM 42.6175 -77.2486 86° East 504 580 33,100 -1,000 Descending Boston Center
Sat 08:57:39 PM 42.6275 -77.0575 86° East 498 573 32,100 -1,000 Descending Boston Center
Sat 08:58:39 PM 42.6372 -76.8661 86° East 498 573 31,100 -1,000 Descending Boston Center
Sat 08:59:39 PM 42.6486 -76.6750 85° East 498 573 30,100 -1,000 Descending Boston Center
Sat 09:00:39 PM 42.6558 -76.4778 87° East 503 579 29,100 -550 Descending Boston Center
Sat 09:01:39 PM 42.6644 -76.2919 86° East 503 579 29,000 -650 Descending Boston Center
Sat 09:02:39 PM 42.6733 -76.0889 87° East 491 565 27,800 -1,650 Descending Boston Center
Sat 09:03:39 PM 42.6808 -75.9086 87° East 485 558 25,700 -2,050 Descending Boston Center
Sat 09:04:39 PM 42.6881 -75.7367 87° East 473 544 23,700 -1,950 Descending Boston Center
Sat 09:05:39 PM 42.6950 -75.5675 87° East 460 529 21,800 -1,900 Descending Boston Center
Sat 09:06:39 PM 42.7014 -75.4067 87° East 449 517 19,900 -1,800 Descending Boston Center
Sat 09:07:39 PM 42.7078 -75.2431 87° East 437 503 18,200 -1,650 Descending Boston Center
Sat 09:08:39 PM 42.7114 -75.0822 88° East 425 489 16,600 -1,650 Descending Boston Center
Sat 09:09:39 PM 42.7169 -74.9328 87° East 413 475 14,900 -1,700 Descending Boston Center
Sat 09:10:39 PM 42.7222 -74.7886 87° East 400 460 13,200 -1,816 Descending Boston Center
Sat 09:10:55 PM 42.7231 -74.7492 88° East 370 426 12,600 -1,500 Descending Boston Center
Sat 09:11:39 PM 42.7247 -74.6617 88° East 379 436 11,700 -1,377 Descending Boston Center
Sat 09:11:56 PM 42.7361 -74.6139 72° East 367 422 11,200 -600 Descending Boston Center
Sat 09:12:39 PM 42.7669 -74.5272 64° Northeast 349 402 11,100 -300 Descending Boston Center
Sat 09:12:56 PM 42.7842 -74.4967 52° Northeast 348 400 10,900 -900 Descending Boston Center
Sat 09:13:39 PM 42.8081 -74.4325 63° Northeast 329 379 10,200 -1,180 Descending Boston Center
Sat 09:13:57 PM 42.8233 -74.3933 62° Northeast 305 351 9,700 -1,600 Descending Boston Center
Sat 09:14:39 PM 42.8497 -74.3206 64° Northeast 298 343 8,600 -1,700 Descending Boston Center
Sat 09:14:57 PM 42.8625 -74.2983 52° Northeast 285 328 8,000 -1,600 Descending Boston Center
Sat 09:15:39 PM 42.8844 -74.2367 64° Northeast 285 328 7,000 -1,574 Descending Boston Center
Sat 09:15:58 PM 42.8892 -74.1942 81° East 288 331 6,400 -1,600 Descending Boston Center
Sat 09:16:39 PM 42.8903 -74.1150 89° East 280 322 5,400 -1,475 Descending Boston Center
Sat 09:16:59 PM 42.8908 -74.0836 89° East 295 339 4,900 -1,000 Descending Boston Center
Sat 09:17:39 PM 42.8917 -74.0186 89° East 280 322 4,400 -900 Descending Boston Center
Sat 09:17:59 PM 42.8944 -73.9675 86° East 286 329 4,000 -700 Descending Boston Center
Sat 09:18:39 PM 42.8975 -73.9025 86° East 280 322 3,700 -689 Descending Boston Center
Sat 09:19:00 PM 42.9000 -73.8631 85° East 270 311 3,300 -700 Descending Boston Center
Sat 09:19:39 PM 42.8986 -73.8061 92° East 258 297 3,000 -295 Descending Boston Center
Sat 09:20:01 PM 42.9011 -73.7722 84° East 233 268 3,000 -100 Level Boston Center
Sat 09:20:39 PM 42.8994 -73.7269 93° East 235 270 2,900 -400 Descending Boston Center
Sat 09:21:01 PM 42.8936 -73.6928 103° East 217 250 2,600 -300 Descending Boston Center
Sat 09:21:39 PM 42.8564 -73.6750 161° South 183 211 2,600 -98 Level Boston Center
Sat 09:22:02 PM 42.8378 -73.6717 173° South 204 235 2,500 -200 Descending Boston Center
Sat 09:22:39 PM 42.8064 -73.6711 179° South 193 222 2,400 -162 Descending Boston Center

Login

Don't have an account? Register now (free) for customized features, flight alerts, and more!